createdAt,value
2018-08-03T00:02:22.051Z,47.00
2018-08-03T00:04:50.693Z,46.10
2018-08-03T00:07:19.116Z,46.90
2018-08-03T00:09:47.520Z,47.00
2018-08-03T00:12:16.067Z,47.30
2018-08-03T00:17:12.921Z,48.50
2018-08-03T00:19:41.778Z,48.20
2018-08-03T00:22:10.266Z,48.20
2018-08-03T00:24:38.666Z,48.10
2018-08-03T00:32:03.941Z,49.00
2018-08-03T00:34:32.307Z,47.90
2018-08-03T00:37:00.763Z,49.00
2018-08-03T00:39:29.165Z,48.80
2018-08-03T00:41:57.655Z,48.80
2018-08-03T00:44:26.148Z,48.90
2018-08-03T00:46:54.586Z,50.00
2018-08-03T00:49:23.045Z,49.90
2018-08-03T00:54:19.673Z,52.10
2018-08-03T00:56:48.355Z,52.30
2018-08-03T00:59:16.844Z,52.70
2018-08-03T01:01:45.298Z,52.70
2018-08-03T01:04:13.766Z,53.10
2018-08-03T01:06:41.960Z,52.20
2018-08-03T01:09:11.984Z,52.30
2018-08-03T01:11:40.467Z,52.90
2018-08-03T01:14:09.550Z,52.60
2018-08-03T01:16:40.559Z,52.80
2018-08-03T01:21:40.221Z,52.40
2018-08-03T01:24:09.301Z,52.20
2018-08-03T01:29:06.435Z,52.70
2018-08-03T01:31:35.031Z,52.30
2018-08-03T01:34:03.827Z,52.80
2018-08-03T01:36:33.705Z,53.10
2018-08-03T01:39:04.534Z,52.50
2018-08-03T01:44:02.014Z,53.30
2018-08-03T01:46:31.470Z,53.40
2018-08-03T01:49:00.737Z,53.10
2018-08-03T01:51:29.565Z,53.30
2018-08-03T01:53:59.659Z,54.40
2018-08-03T01:56:28.463Z,53.60
2018-08-03T01:58:57.378Z,53.70
2018-08-03T02:01:26.307Z,53.70
2018-08-03T02:06:23.734Z,54.60
2018-08-03T02:08:52.450Z,54.70
2018-08-03T02:11:21.175Z,54.70
2018-08-03T02:13:50.258Z,54.00
2018-08-03T02:16:19.652Z,54.70
2018-08-03T02:18:48.434Z,54.00
2018-08-03T02:21:17.057Z,55.00
2018-08-03T02:23:45.719Z,55.20
2018-08-03T02:26:14.457Z,55.40
2018-08-03T02:28:44.080Z,56.00
2018-08-03T02:31:12.653Z,55.10
2018-08-03T02:33:44.163Z,55.00
2018-08-03T02:36:15.594Z,55.80
2018-08-03T02:38:45.003Z,55.80
2018-08-03T02:41:13.586Z,56.40
2018-08-03T02:43:42.180Z,56.50
2018-08-03T02:46:10.824Z,56.10
2018-08-03T02:48:39.500Z,56.40
2018-08-03T02:51:08.015Z,56.70
2018-08-03T02:53:36.593Z,57.40
2018-08-03T02:56:05.244Z,57.10
2018-08-03T03:01:02.229Z,57.40
2018-08-03T03:03:31.261Z,56.60
2018-08-03T03:06:00.200Z,56.70
2018-08-03T03:10:57.969Z,58.40
2018-08-03T03:13:26.485Z,58.30
2018-08-03T03:15:56.060Z,57.60
2018-08-03T03:18:24.650Z,58.20
2018-08-03T03:20:53.767Z,58.50
2018-08-03T03:23:22.547Z,57.80
2018-08-03T03:25:51.165Z,57.20
2018-08-03T03:28:19.798Z,57.60
2018-08-03T03:30:48.438Z,58.60
2018-08-03T03:33:17.131Z,57.40
2018-08-03T03:35:45.809Z,58.70
2018-08-03T03:38:16.050Z,57.70
2018-08-03T03:40:44.797Z,58.90
2018-08-03T03:43:13.397Z,57.90
2018-08-03T03:45:42.131Z,57.90
2018-08-03T03:48:11.397Z,57.60
2018-08-03T03:50:39.687Z,57.80
2018-08-03T03:53:08.682Z,58.10
2018-08-03T03:55:37.340Z,58.70
2018-08-03T03:58:05.873Z,58.50
2018-08-03T04:00:34.568Z,58.30
2018-08-03T04:03:04.094Z,59.00
2018-08-03T04:05:33.253Z,58.50
2018-08-03T04:08:01.847Z,57.60
2018-08-03T04:10:30.551Z,57.60
2018-08-03T04:12:59.328Z,57.90
2018-08-03T04:15:28.080Z,57.80
2018-08-03T04:17:57.376Z,57.90
2018-08-03T04:22:53.916Z,58.70
2018-08-03T04:25:22.643Z,58.70
2018-08-03T04:27:51.391Z,58.20
2018-08-03T04:32:49.455Z,59.60
2018-08-03T04:35:18.079Z,58.80
2018-08-03T04:37:47.295Z,58.70
2018-08-03T04:40:15.872Z,58.20
2018-08-03T04:42:45.461Z,58.40
2018-08-03T04:45:14.966Z,58.50
2018-08-03T04:47:44.746Z,58.20
2018-08-03T04:50:13.650Z,58.90
2018-08-03T04:52:43.940Z,59.90
2018-08-03T04:55:16.399Z,59.50
2018-08-03T04:57:46.734Z,59.40
2018-08-03T05:00:15.623Z,59.40
2018-08-03T05:02:45.976Z,58.90
2018-08-03T05:05:17.310Z,58.90
2018-08-03T05:07:49.491Z,59.40
2018-08-03T05:10:18.177Z,58.90
2018-08-03T05:15:18.988Z,58.90
2018-08-03T05:17:47.652Z,59.30
2018-08-03T05:20:17.098Z,59.40
2018-08-03T05:22:46.156Z,59.80
2018-08-03T05:25:18.940Z,58.80
2018-08-03T05:27:48.120Z,59.70
2018-08-03T05:32:47.020Z,59.70
2018-08-03T05:35:16.408Z,59.90
2018-08-03T05:37:45.129Z,60.10
2018-08-03T05:40:14.683Z,59.80
2018-08-03T05:42:44.010Z,59.70
2018-08-03T05:45:12.855Z,59.90
2018-08-03T05:47:44.535Z,59.50
2018-08-03T05:50:15.067Z,58.60
2018-08-03T05:52:46.120Z,58.60
2018-08-03T05:55:14.908Z,57.80
2018-08-03T05:57:44.391Z,58.50
2018-08-03T06:00:16.243Z,58.80
2018-08-03T06:02:45.491Z,59.00
2018-08-03T06:05:16.586Z,59.00
2018-08-03T06:07:47.659Z,58.70
2018-08-03T06:10:18.952Z,58.40
2018-08-03T06:15:18.359Z,58.80
2018-08-03T06:17:48.553Z,58.40
2018-08-03T06:20:17.475Z,57.80
2018-08-03T06:22:47.145Z,56.20
2018-08-03T06:27:48.015Z,57.10
2018-08-03T06:30:16.807Z,56.40
2018-08-03T06:32:46.655Z,56.60
2018-08-03T06:35:16.659Z,56.50
2018-08-03T06:37:46.173Z,56.40
2018-08-03T06:40:19.665Z,56.90
2018-08-03T06:42:49.567Z,56.00
2018-08-03T06:47:50.291Z,56.20
2018-08-03T06:50:20.174Z,55.00
2018-08-03T06:52:49.740Z,55.30
2018-08-03T06:57:49.231Z,55.40
2018-08-03T07:00:18.738Z,53.00
2018-08-03T07:02:50.532Z,53.50
2018-08-03T07:05:21.290Z,53.40
2018-08-03T07:07:50.563Z,53.20
2018-08-03T07:10:20.440Z,52.50
2018-08-03T07:12:52.372Z,51.40
2018-08-03T07:20:20.832Z,51.40
2018-08-03T07:22:49.795Z,49.90
2018-08-03T07:25:21.584Z,50.40
2018-08-03T07:27:50.305Z,50.00
2018-08-03T07:30:19.897Z,49.70
2018-08-03T07:32:49.602Z,49.20
2018-08-03T07:35:18.443Z,48.70
2018-08-03T07:37:47.329Z,47.40
2018-08-03T07:40:16.150Z,47.80
2018-08-03T07:42:47.394Z,46.80
2018-08-03T07:45:30.567Z,46.50
2018-08-03T07:48:07.275Z,47.40
2018-08-03T07:50:37.470Z,46.10
2018-08-03T07:53:12.990Z,46.40
2018-08-03T07:55:45.193Z,45.30
2018-08-03T07:58:15.130Z,43.70
2018-08-03T08:00:46.019Z,44.10
2018-08-03T08:03:18.959Z,43.00
2018-08-03T08:15:37.875Z,41.70
2018-08-03T08:18:09.897Z,40.60
2018-08-03T08:20:39.657Z,28.70
2018-08-03T08:23:09.040Z,24.90
2018-08-03T08:25:40.543Z,24.30
2018-08-03T08:28:12.083Z,23.60
2018-08-03T08:30:43.154Z,22.40
2018-08-03T08:33:13.437Z,21.70
2018-08-03T08:35:43.504Z,21.30
2018-08-03T08:38:12.940Z,21.40
2018-08-03T08:40:43.816Z,20.80
2018-08-03T08:43:14.346Z,21.40
2018-08-03T08:45:44.336Z,21.00
2018-08-03T08:48:15.550Z,21.00
2018-08-03T08:50:45.272Z,21.10
2018-08-03T08:53:14.108Z,20.70
2018-08-03T08:55:43.421Z,19.60
2018-08-03T08:58:12.370Z,19.60
2018-08-03T09:00:41.001Z,18.90
2018-08-03T09:03:10.401Z,19.40
2018-08-03T09:05:41.331Z,19.10
2018-08-03T09:08:11.844Z,19.10
2018-08-03T09:10:40.399Z,19.50
2018-08-03T09:13:09.888Z,20.30
2018-08-03T09:15:41.714Z,19.90
2018-08-03T09:18:12.520Z,19.20
2018-08-03T09:23:11.108Z,19.90
2018-08-03T09:25:40.389Z,19.20
2018-08-03T09:37:54.809Z,19.20
2018-08-03T09:40:26.333Z,19.10
2018-08-03T09:42:58.774Z,19.20
2018-08-03T09:45:28.393Z,19.10
2018-08-03T09:50:29.097Z,18.60
2018-08-03T09:52:59.671Z,18.90
2018-08-03T09:55:33.074Z,18.90
2018-08-03T09:58:04.965Z,18.70
2018-08-03T10:00:40.243Z,19.30
2018-08-03T10:03:09.669Z,18.80
2018-08-03T10:05:42.456Z,19.80
2018-08-03T10:08:14.493Z,19.50
2018-08-03T10:10:44.195Z,19.20
2018-08-03T10:15:43.803Z,19.50
2018-08-03T10:18:13.346Z,20.40
2018-08-03T10:20:44.177Z,19.80
2018-08-03T10:23:20.064Z,18.60
2018-08-03T10:25:50.213Z,18.80
2018-08-03T10:28:21.061Z,19.80
2018-08-03T10:30:52.276Z,18.80
2018-08-03T10:33:24.814Z,18.60
2018-08-03T10:35:54.676Z,19.10
2018-08-03T10:38:25.786Z,18.10
2018-08-03T10:40:56.102Z,18.40
2018-08-03T10:43:26.208Z,19.20
2018-08-03T10:48:26.364Z,19.10
2018-08-03T10:50:58.091Z,18.00
2018-08-03T10:53:28.449Z,18.10
2018-08-03T10:55:59.260Z,17.90
2018-08-03T10:58:28.769Z,16.90
2018-08-03T11:00:58.311Z,18.70
2018-08-03T11:15:45.080Z,18.60
2018-08-03T11:18:15.342Z,22.30
2018-08-03T11:20:45.231Z,22.50
2018-08-03T11:23:15.686Z,22.30
2018-08-03T11:25:46.462Z,20.00
2018-08-03T11:28:17.306Z,19.40
2018-08-03T11:30:46.833Z,20.60
2018-08-03T11:33:15.720Z,20.50
2018-08-03T11:35:45.683Z,20.70
2018-08-03T11:38:15.487Z,19.60
2018-08-03T11:40:44.298Z,19.70
2018-08-03T11:43:14.712Z,19.60
2018-08-03T11:45:43.276Z,18.80
2018-08-03T11:48:15.794Z,19.10
2018-08-03T11:50:45.902Z,19.10
2018-08-03T11:53:15.774Z,18.60
2018-08-03T11:55:44.508Z,18.50
2018-08-03T11:58:13.136Z,18.80
2018-08-03T12:03:12.013Z,18.40
2018-08-03T12:05:42.886Z,19.40
2018-08-03T12:10:42.360Z,18.00
2018-08-03T12:15:41.620Z,18.70
2018-08-03T12:20:46.209Z,19.10
2018-08-03T12:23:19.138Z,18.90
2018-08-03T12:25:49.810Z,18.90
2018-08-03T12:28:19.554Z,19.00
2018-08-03T12:30:49.313Z,18.60
2018-08-03T12:33:19.823Z,18.40
2018-08-03T12:35:50.206Z,19.20
2018-08-03T12:38:20.419Z,18.70
2018-08-03T12:40:49.714Z,19.70
2018-08-03T12:45:47.738Z,18.40
2018-08-03T12:48:17.022Z,18.50
2018-08-03T12:50:45.902Z,19.40
2018-08-03T12:58:14.901Z,18.60
2018-08-03T13:00:43.677Z,18.20
2018-08-03T13:03:12.509Z,19.10
2018-08-03T13:08:10.935Z,18.40
2018-08-03T13:10:41.253Z,18.20
2018-08-03T13:13:11.619Z,18.30
2018-08-03T13:15:41.140Z,18.50
2018-08-03T13:18:10.564Z,18.20
2018-08-03T13:23:09.257Z,18.60
2018-08-03T13:25:38.524Z,18.50
2018-08-03T13:30:37.127Z,18.40
2018-08-03T13:33:06.501Z,17.60
2018-08-03T13:35:35.279Z,17.60
2018-08-03T13:38:05.268Z,18.40
2018-08-03T13:40:34.489Z,19.40
2018-08-03T13:43:08.656Z,19.30
2018-08-03T13:45:37.299Z,19.50
2018-08-03T13:48:12.710Z,18.10
2018-08-03T13:50:42.368Z,18.10
2018-08-03T13:53:14.723Z,18.60
2018-08-03T13:55:43.568Z,18.30
2018-08-03T14:00:44.285Z,17.80
2018-08-03T14:03:13.124Z,17.10
2018-08-03T14:08:13.274Z,17.20
2018-08-03T14:29:57.974Z,17.60
2018-08-03T14:32:27.319Z,17.30
2018-08-03T14:34:56.603Z,17.10
2018-08-03T14:39:55.957Z,15.20
2018-08-03T14:42:24.665Z,15.10
2018-08-03T14:44:56.791Z,14.60
2018-08-03T14:47:29.501Z,16.00
2018-08-03T14:50:00.066Z,15.50
2018-08-03T14:52:30.432Z,15.40
2018-08-03T14:54:59.734Z,14.60
2018-08-03T14:57:28.704Z,14.80
2018-08-03T14:59:59.656Z,15.30
2018-08-03T15:02:30.707Z,15.60
2018-08-03T15:04:59.088Z,15.70
2018-08-03T15:07:29.646Z,14.70
2018-08-03T15:09:58.093Z,15.30
2018-08-03T15:12:28.968Z,15.00
2018-08-03T15:14:57.782Z,14.40
2018-08-03T15:19:56.207Z,15.00
2018-08-03T15:22:26.744Z,15.10
2018-08-03T15:24:55.764Z,15.20
2018-08-03T15:27:25.142Z,14.60
2018-08-03T15:29:55.612Z,15.10
2018-08-03T15:32:26.614Z,15.40
2018-08-03T15:34:55.394Z,15.40
2018-08-03T15:37:24.873Z,15.00
2018-08-03T15:42:22.896Z,14.30
2018-08-03T15:44:52.404Z,14.60
2018-08-03T15:47:27.444Z,14.10
2018-08-03T15:49:58.035Z,13.70
2018-08-03T15:52:33.431Z,13.60
2018-08-03T15:55:02.989Z,14.60
2018-08-03T15:57:33.745Z,14.00
2018-08-03T16:09:48.416Z,13.80
2018-08-03T16:12:17.608Z,14.40
2018-08-03T16:14:47.138Z,14.30
2018-08-03T16:17:18.472Z,14.40
2018-08-03T16:19:47.320Z,13.50
2018-08-03T16:22:18.170Z,13.90
2018-08-03T16:24:48.148Z,14.00
2018-08-03T16:27:18.896Z,13.70
2018-08-03T16:29:48.822Z,14.30
2018-08-03T16:32:19.812Z,14.30
2018-08-03T16:37:17.061Z,14.70
2018-08-03T16:39:46.606Z,14.40
2018-08-03T16:47:16.845Z,15.90
2018-08-03T16:49:47.234Z,16.60
2018-08-03T16:52:19.522Z,17.20
2018-08-03T16:54:49.818Z,18.80
2018-08-03T16:57:18.554Z,19.90
2018-08-03T16:59:48.200Z,20.30
2018-08-03T17:02:20.162Z,20.80
2018-08-03T17:09:48.771Z,22.30
2018-08-03T17:12:17.692Z,21.70
2018-08-03T17:17:18.323Z,22.10
2018-08-03T17:19:48.460Z,22.20
2018-08-03T17:22:18.538Z,22.50
2018-08-03T17:24:48.315Z,22.90
2018-08-03T17:27:17.837Z,23.00
2018-08-03T17:29:47.595Z,23.10
2018-08-03T17:32:19.974Z,23.30
2018-08-03T17:34:50.016Z,23.30
2018-08-03T17:37:20.084Z,23.50
2018-08-03T17:39:48.741Z,23.50
2018-08-03T17:42:23.521Z,23.90
2018-08-03T17:44:52.258Z,24.10
2018-08-03T17:49:51.240Z,24.30
2018-08-03T17:52:21.864Z,24.50
2018-08-03T17:54:51.850Z,24.30
2018-08-03T17:59:50.404Z,24.90
2018-08-03T18:02:19.069Z,24.80
2018-08-03T18:04:47.735Z,25.00
2018-08-03T18:07:16.532Z,25.50
2018-08-03T18:09:46.615Z,26.00
2018-08-03T18:12:15.256Z,26.80
2018-08-03T18:14:45.378Z,26.90
2018-08-03T18:26:59.658Z,27.10
2018-08-03T18:29:28.445Z,29.50
2018-08-03T18:31:58.352Z,29.50
2018-08-03T18:34:27.353Z,29.20
2018-08-03T18:36:56.332Z,28.90
2018-08-03T18:39:25.003Z,29.20
2018-08-03T18:41:54.341Z,29.20
2018-08-03T18:44:23.484Z,29.20
2018-08-03T18:46:52.136Z,29.80
2018-08-03T18:49:21.524Z,29.50
2018-08-03T18:51:51.075Z,30.00
2018-08-03T18:54:21.567Z,29.50
2018-08-03T18:56:50.129Z,29.60
2018-08-03T18:59:18.934Z,29.50
2018-08-03T19:01:47.690Z,29.50
2018-08-03T19:04:16.605Z,29.60
2018-08-03T19:06:48.668Z,29.90
2018-08-03T19:09:17.448Z,30.20
2018-08-03T19:14:14.061Z,30.30
2018-08-03T19:16:43.006Z,30.90
2018-08-03T19:21:45.120Z,31.40
2018-08-03T19:24:14.255Z,31.50
2018-08-03T19:26:43.627Z,31.40
2018-08-03T19:29:12.872Z,31.20
2018-08-03T19:31:41.567Z,32.40
2018-08-03T19:34:10.170Z,32.10
2018-08-03T19:36:39.647Z,32.40
2018-08-03T19:39:10.238Z,33.10
2018-08-03T19:41:38.934Z,33.30
2018-08-03T19:44:10.590Z,33.50
2018-08-03T19:59:41.033Z,33.90
2018-08-03T20:02:10.047Z,38.50
2018-08-03T20:04:38.676Z,38.80
2018-08-03T20:09:38.920Z,38.40
2018-08-03T20:12:09.969Z,38.30
2018-08-03T20:14:43.074Z,38.30
2018-08-03T20:17:12.489Z,38.90
2018-08-03T20:19:41.140Z,38.90
2018-08-03T20:22:17.307Z,38.20
2018-08-03T20:27:16.723Z,38.70
2018-08-03T20:29:45.621Z,39.00
2018-08-03T20:32:14.424Z,39.20
2018-08-03T20:34:43.010Z,39.50
2018-08-03T20:39:41.906Z,39.80
2018-08-03T20:44:39.395Z,39.80
2018-08-03T20:47:09.199Z,39.40
2018-08-03T20:49:41.748Z,39.30
2018-08-03T20:52:10.747Z,40.50
2018-08-03T20:54:40.980Z,39.30
2018-08-03T20:57:10.850Z,39.30
2018-08-03T21:02:10.557Z,39.50
2018-08-03T21:04:40.438Z,39.70
2018-08-03T21:07:10.135Z,39.80
2018-08-03T21:09:38.783Z,40.40
2018-08-03T21:12:09.719Z,40.60
2018-08-03T21:14:39.085Z,40.30
2018-08-03T21:17:08.629Z,39.80
2018-08-03T21:19:37.367Z,40.20
2018-08-03T21:22:07.872Z,40.90
2018-08-03T21:27:09.738Z,41.50
2018-08-03T21:37:07.765Z,42.60
2018-08-03T21:39:37.230Z,42.60
2018-08-03T21:42:06.401Z,43.30
2018-08-03T21:47:06.034Z,44.60
2018-08-03T21:49:35.584Z,44.00
2018-08-03T21:52:05.126Z,43.70
2018-08-03T21:54:35.612Z,44.10
2018-08-03T21:57:05.500Z,44.80
2018-08-03T21:59:35.266Z,44.30
2018-08-03T22:02:04.768Z,44.90
2018-08-03T22:04:33.594Z,44.60
2018-08-03T22:07:03.081Z,44.10
2018-08-03T22:09:33.828Z,44.60
2018-08-03T22:12:02.712Z,44.60
2018-08-03T22:14:32.230Z,45.10
2018-08-03T22:17:01.085Z,45.80
2018-08-03T22:19:30.357Z,45.30
2018-08-03T22:22:03.802Z,45.80
2018-08-03T22:24:34.952Z,45.60
2018-08-03T22:27:04.317Z,46.40
2018-08-03T22:29:33.851Z,46.70
2018-08-03T22:32:04.551Z,47.60
2018-08-03T22:34:34.876Z,48.10
2018-08-03T22:37:03.535Z,47.80
2018-08-03T22:39:34.469Z,47.60
2018-08-03T22:42:04.097Z,48.50
2018-08-03T22:44:38.060Z,48.60
2018-08-03T22:47:07.831Z,48.40
2018-08-03T22:59:21.642Z,49.80
2018-08-03T23:01:50.569Z,54.00
2018-08-03T23:04:20.534Z,53.40
2018-08-03T23:06:50.424Z,53.50
2018-08-03T23:09:20.025Z,52.80
2018-08-03T23:14:18.971Z,53.20
2018-08-03T23:16:47.960Z,52.50
2018-08-03T23:19:16.739Z,52.40
2018-08-03T23:21:45.536Z,52.30
2018-08-03T23:24:13.921Z,53.00
2018-08-03T23:29:11.463Z,53.40
2018-08-03T23:31:40.527Z,53.00
2018-08-03T23:34:09.172Z,53.90
2018-08-03T23:36:37.883Z,54.50
2018-08-03T23:39:09.487Z,54.80
2018-08-03T23:41:38.220Z,54.90
2018-08-03T23:44:07.657Z,53.90
2018-08-03T23:46:37.310Z,54.10
2018-08-03T23:49:07.888Z,53.70
2018-08-03T23:51:37.332Z,53.20
2018-08-03T23:54:07.249Z,53.80
2018-08-03T23:56:36.644Z,53.70
2018-08-03T23:59:06.376Z,54.20
